Oxford, NJ (07863)

11:12 AM EDT on May 30, 2015 (GMT -0400)
3Dogsonahill | | Change Station
CLOSE
Current Station
Personal Weather Station
Location: Mansfield Township, NJ
Elevation: 804 ft
Nearby Weather Stations

Elev 804 ft 40.79 °N, 74.92 °W | Updated 14 minutes ago

Overcast
Overcast
79.3 °F
Feels Like 82 °F
N
5.8
Wind Variable Wind from South

Today
High -- | Low -- °F
--% Chance of Precip.
Yesterday
High -- | Low -- °F
Precip. -- in
5:31 AM 8:23 PM
Waxing Gibbous, 90% visible
Pressure 30.18 in
Visibility 8.0 miles
Clouds Mostly Cloudy 1700 ft
Mostly Cloudy 2300 ft
Heat Index 82 °F
Dew Point 67 °F
Humidity 67%
Rainfall 0.00 in
Snow Depth Not available.
UV 5 out of 12
Pollen 8.20 out of 12
Air Quality Not available.
Flu Activity Sporadic
METAR KSMQ 301453Z AUTO 16005KT 8SM BKN017 BKN023 24/19 A3018 RMK AO2 SLP218 T02440194

More Conditions Fewer Conditions

Pressure 30.18 in
Visibility 8.0 miles
Clouds Mostly Cloudy 1700 ft
Mostly Cloudy 2300 ft
Heat Index 82 °F
Dew Point 67 °F
Humidity 67%
Rainfall 0.00 in
Snow Depth Not available.
UV 5 out of 12
Pollen 8.20 out of 12
Air Quality Not available.
Flu Activity Sporadic
METAR KSMQ 301453Z AUTO 16005KT 8SM BKN017 BKN023 24/19 A3018 RMK AO2 SLP218 T02440194

More Conditions Fewer Conditions

10-Day Weather Forecast

Almanac

Astronomy

May. 30, 2015 Rise Set
Actual Time
Civil Twilight
Nautical Twilight
Astronomical Twilight
Moon
Length of Visible Light
Length of Day
Tomorrow will be .
, % of the Moon is Illuminated

Today's Extremes

State Highs State Lows

Community

WunderPhotos

Upload Photos

1,825,542 photos uploaded!

WunderBlogs® & News

Nearby

Air Quality

  Air Quality AQ Index Pollutant
Not available.

Snow Depth

Station Depth Elevation

Earthquake Activity

City Distance Mag. Time & Date
Minimum magnitude displayed is 2.5.

Coastal Water Temperatures

Place Temperature

Stations

Nearby Weather Stations

Station Location Temp. Windchill Dew Point Humidity Wind Precip. Elev Updated Type